METAR Data
IDs: Format: Raw Decoded Include TAF

Data at: 1921 UTC 26 Sep 2021

RKSM 261900Z 24001KT 9999 BKN180 17/14 A3006